CheckWX is a tool to help pilots better visualize weather data.  It is not intended as a substitute for an official pre-flight weather briefing.

19:20:38 UTC

KIIB METAR
Independence Municipal Airport
Independence, Iowa, USA
Current

26 mins ago

KIIB 221855Z AUTO 10007KT 10SM CLR 00/M07 A3034 RMK AO2 T10011073
Observed
Feb-22 @ 18:55 UTC
Wind
  • 100° at 7 KTS
Visibility
10 SM
Flight Rules
VFR
Cloud Levels
  • Clear skies
Temperature
-0°C / 32°F
Dewpoint
-7°C / 19°F
Humidity
60%
Altimeter
30.34" Hg
Pressure
1027.42 hPa
Previous

46 mins ago

KIIB 221835Z AUTO 08006KT 10SM CLR 01/M07 A3035 RMK AO2 T00051075
Observed
Feb-22 @ 18:35 UTC
Wind
  • 080° at 6 KTS
Visibility
10 SM
Flight Rules
VFR
Cloud Levels
  • Clear skies
Temperature
C / 34°F
Dewpoint
-8°C / 18°F
Humidity
51%
Altimeter
30.35" Hg
Pressure
1027.82 hPa
Previous

1 hour ago

KIIB 221815Z AUTO 10005KT 10SM CLR 01/M07 A3038 RMK AO2 T00081072
Observed
Feb-22 @ 18:15 UTC
Wind
  • 100° at 5 KTS
Visibility
10 SM
Flight Rules
VFR
Cloud Levels
  • Clear skies
Temperature
C / 34°F
Dewpoint
-7°C / 19°F
Humidity
56%
Altimeter
30.38" Hg
Pressure
1028.81 hPa